Time;durP1;ratioP1;P1;durP2;ratioP2;P2;SDS_P1;SDS_P2;PMS_P1;PMS_P2;Temp;Humidity;BMP_temperature;BMP_pressure;BME280_temperature;BME280_humidity;BME280_pressure;Samples;Min_cycle;Max_cycle;Signal;HPM_P1;HPM_P2
2022/11/01 00:00:39;;;;;;;88.57;26.50;;;;;;;;;;5065030;28;20847;-63
2022/11/01 00:03:06;;;;;;;124.27;39.07;;;;;;;;;;5062004;28;20471;-63
2022/11/01 00:05:33;;;;;;;81.50;36.07;;;;;;;;;;5059888;28;20494;-62
2022/11/01 00:08:01;;;;;;;104.17;37.57;;;13.40;99.90;;;;;;5077517;28;20987;-63
2022/11/01 00:10:28;;;;;;;111.80;37.17;;;13.50;99.90;;;;;;5061909;28;20517;-63
2022/11/01 00:12:55;;;;;;;103.20;36.70;;;13.50;99.90;;;;;;5064116;28;20954;-62
2022/11/01 00:15:22;;;;;;;78.43;31.07;;;;;;;;;;5068101;28;20478;-62
2022/11/01 00:17:49;;;;;;;83.83;31.90;;;13.50;99.90;;;;;;5064424;28;20486;-62
2022/11/01 00:20:16;;;;;;;84.07;33.27;;;;;;;;;;5064208;28;20486;-63
2022/11/01 00:22:43;;;;;;;64.07;23.90;;;13.40;99.90;;;;;;5065024;28;20478;-62
2022/11/01 00:25:12;;;;;;;57.20;22.17;;;;;;;;;;5067042;28;20493;-62
2022/11/01 00:27:39;;;;;;;99.17;27.43;;;13.40;99.90;;;;;;5066311;28;20552;-62
2022/11/01 00:30:06;;;;;;;89.30;28.57;;;12.20;99.90;;;;;;5065954;28;20500;-62
2022/11/01 00:32:33;;;;;;;70.03;26.30;;;13.50;99.90;;;;;;5074934;28;20474;-62
2022/11/01 00:35:00;;;;;;;67.60;23.60;;;;;;;;;;5063533;28;21036;-62
2022/11/01 00:37:28;;;;;;;76.50;27.30;;;;;;;;;;5071390;28;20828;-62
2022/11/01 00:39:55;;;;;;;67.63;23.10;;;;;;;;;;5068843;28;20582;-62
2022/11/01 00:42:24;;;;;;;101.97;29.10;;;;;;;;;;5068054;28;20481;-62
2022/11/01 00:44:50;;;;;;;87.43;24.27;;;13.40;99.90;;;;;;5068945;28;20479;-62
2022/11/01 00:47:17;;;;;;;79.17;23.30;;;;;;;;;;5051400;28;20474;-62
2022/11/01 00:49:44;;;;;;;72.60;24.37;;;;;;;;;;5081755;28;20499;-62
2022/11/01 00:52:12;;;;;;;87.10;26.33;;;;;;;;;;5067368;28;20881;-62
2022/11/01 00:54:38;;;;;;;70.10;22.90;;;13.50;99.90;;;;;;5068479;28;20473;-62
2022/11/01 00:57:06;;;;;;;64.33;23.30;;;13.40;99.90;;;;;;5065713;28;20900;-62
2022/11/01 00:59:34;;;;;;;93.07;26.50;;;;;;;;;;5067957;28;20717;-63
2022/11/01 01:02:01;;;;;;;80.90;23.77;;;;;;;;;;5066989;28;20616;-63
2022/11/01 01:04:28;;;;;;;62.20;25.67;;;13.50;99.90;;;;;;5067576;28;20501;-62
2022/11/01 01:06:55;;;;;;;71.57;26.67;;;;;;;;;;5066370;28;20504;-62
2022/11/01 01:09:22;;;;;;;54.10;20.90;;;;;;;;;;5058148;28;20553;-63
2022/11/01 01:11:49;;;;;;;72.70;24.87;;;13.50;99.90;;;;;;5068319;28;20940;-63
2022/11/01 01:14:16;;;;;;;51.77;23.37;;;;;;;;;;5066809;28;20469;-63
2022/11/01 01:16:44;;;;;;;71.03;26.60;;;13.50;99.90;;;;;;5079342;28;20478;-62
2022/11/01 01:19:11;;;;;;;56.40;22.80;;;13.60;99.90;;;;;;5071564;28;20900;-62
2022/11/01 01:21:38;;;;;;;57.53;22.43;;;;;;;;;;5064851;28;20484;-63
2022/11/01 01:24:05;;;;;;;64.37;26.57;;;;;;;;;;5073693;28;20482;-62
2022/11/01 01:26:32;;;;;;;50.57;22.93;;;;;;;;;;5073668;28;20820;-62
2022/11/01 01:28:59;;;;;;;52.77;21.90;;;13.60;99.90;;;;;;5066624;28;20486;-62
2022/11/01 01:31:26;;;;;;;60.27;22.37;;;13.70;99.90;;;;;;5065568;28;21123;-63
2022/11/01 01:33:55;;;;;;;60.67;22.50;;;;;;;;;;5072191;28;21034;-62
2022/11/01 01:36:22;;;;;;;45.27;21.53;;;;;;;;;;5077496;28;20607;-62
2022/11/01 01:38:51;;;;;;;67.30;21.33;;;13.70;99.90;;;;;;5066363;28;20474;-62
2022/11/01 01:44:23;;;;;;;87.30;23.70;;;13.80;99.90;;;;;;5072823;28;20541;-62
2022/11/01 01:46:49;;;;;;;59.97;24.70;;;13.80;99.90;;;;;;5070854;28;20843;-63
2022/11/01 01:49:18;;;;;;;65.03;21.27;;;;;;;;;;5068914;28;20485;-62
2022/11/01 01:51:45;;;;;;;66.80;21.07;;;;;;;;;;5073818;28;20568;-63
2022/11/01 01:54:12;;;;;;;61.53;24.60;;;13.50;99.90;;;;;;5070535;28;20700;-62
2022/11/01 01:56:39;;;;;;;47.87;20.57;;;13.10;99.90;;;;;;5070887;28;21017;-63
2022/11/01 01:59:07;;;;;;;49.50;20.27;;;;;;;;;;5066629;28;20474;-63
2022/11/01 02:01:37;;;;;;;42.43;18.40;;;13.30;99.90;;;;;;5071460;28;21136;-63
2022/11/01 02:04:05;;;;;;;51.80;18.80;;;;;;;;;;5071165;28;20478;-62
2022/11/01 02:06:35;;;;;;;35.17;15.10;;;14.30;99.90;;;;;;5068559;28;20496;-62
2022/11/01 02:09:04;;;;;;;41.93;15.83;;;14.60;99.90;;;;;;5077616;28;20490;-63
2022/11/01 02:11:31;;;;;;;40.70;15.37;;;14.90;99.90;;;;;;5065743;28;20924;-63
2022/11/01 02:13:58;;;;;;;52.13;15.63;;;15.10;99.90;;;;;;5072390;28;20470;-62
2022/11/01 02:16:39;;;;;;;64.63;15.70;;;15.20;99.90;;;;;;5081961;28;20478;-63
2022/11/01 02:19:35;;;;;;;44.87;14.10;;;15.40;99.90;;;;;;5070088;28;20618;-63
2022/11/01 02:22:09;;;;;;;47.17;15.43;;;15.50;99.90;;;;;;5061963;28;20819;-63
2022/11/01 02:25:02;;;;;;;47.37;12.87;;;15.50;99.90;;;;;;5070887;28;21245;-63
2022/11/01 02:27:38;;;;;;;37.03;14.67;;;15.60;99.90;;;;;;5068095;28;20474;-63
2022/11/01 02:30:07;;;;;;;46.47;14.17;;;;;;;;;;5068674;28;20474;-64
2022/11/01 02:32:46;;;;;;;38.90;12.93;;;15.60;99.90;;;;;;5072560;28;20477;-63
2022/11/01 02:35:21;;;;;;;30.33;11.50;;;15.70;99.90;;;;;;5059011;28;20478;-62
2022/11/01 02:37:51;;;;;;;50.87;14.60;;;;;;;;;;5061703;28;20469;-63
2022/11/01 02:40:27;;;;;;;33.63;13.80;;;17.20;99.90;;;;;;5048614;28;20474;-63
2022/11/01 02:42:58;;;;;;;46.80;12.43;;;15.70;99.90;;;;;;5079944;28;20477;-62
2022/11/01 02:45:31;;;;;;;50.57;14.53;;;15.80;99.90;;;;;;5060360;28;20470;-63
2022/11/01 02:48:01;;;;;;;31.63;9.97;;;15.80;99.90;;;;;;5068777;28;20498;-63
2022/11/01 02:50:31;;;;;;;26.40;12.37;;;15.80;99.90;;;;;;5070438;28;20482;-63
2022/11/01 02:52:59;;;;;;;38.67;15.20;;;15.80;99.90;;;;;;5071612;28;20473;-63
2022/11/01 02:55:32;;;;;;;35.40;13.30;;;15.80;99.90;;;;;;5069741;28;21032;-63
2022/11/01 02:58:01;;;;;;;41.90;14.17;;;;;;;;;;5061601;28;20476;-64
2022/11/01 03:00:30;;;;;;;50.53;14.33;;;15.80;99.90;;;;;;5054952;28;20485;-63
2022/11/01 03:03:05;;;;;;;34.60;12.43;;;15.80;99.90;;;;;;5066808;28;20470;-63
2022/11/01 03:05:39;;;;;;;41.27;12.93;;;15.70;99.90;;;;;;5057604;28;20873;-62
2022/11/01 03:08:09;;;;;;;51.00;14.17;;;15.60;99.90;;;;;;5066284;28;20482;-63
2022/11/01 03:10:38;;;;;;;62.47;16.20;;;;;;;;;;5069931;28;20730;-63
2022/11/01 03:13:14;;;;;;;52.47;17.07;;;15.60;99.90;;;;;;5073910;28;20645;-63
2022/11/01 03:15:56;;;;;;;28.40;11.00;;;15.70;99.90;;;;;;5071111;28;20481;-62
2022/11/01 03:18:32;;;;;;;48.43;15.07;;;15.70;99.90;;;;;;5068238;28;20471;-64
2022/11/01 03:21:14;;;;;;;52.00;17.00;;;15.70;99.90;;;;;;5070408;28;20469;-63
2022/11/01 03:23:44;;;;;;;31.00;10.97;;;;;;;;;;5059710;28;20891;-64
2022/11/01 03:26:13;;;;;;;35.03;14.27;;;15.20;99.90;;;;;;5058596;28;20471;-63
2022/11/01 03:28:44;;;;;;;38.47;13.57;;;15.60;99.90;;;;;;5077917;28;20497;-63
2022/11/01 03:31:13;;;;;;;47.27;16.67;;;15.60;99.90;;;;;;5072762;28;20482;-63
2022/11/01 03:33:46;;;;;;;35.73;14.57;;;;;;;;;;5064142;28;20921;-63
2022/11/01 03:36:17;;;;;;;36.53;15.03;;;15.70;99.90;;;;;;5077533;28;20466;-63
2022/11/01 03:38:49;;;;;;;37.23;14.20;;;15.80;99.90;;;;;;5072400;28;20985;-63
2022/11/01 03:41:19;;;;;;;59.20;16.77;;;15.80;99.90;;;;;;5075219;28;20478;-64
2022/11/01 03:43:47;;;;;;;40.50;12.00;;;;;;;;;;5063942;28;20846;-63
2022/11/01 03:46:15;;;;;;;31.73;14.80;;;15.90;99.90;;;;;;5072020;28;20558;-63
2022/11/01 03:48:43;;;;;;;46.70;13.27;;;;;;;;;;5071915;28;20481;-63
2022/11/01 03:51:10;;;;;;;32.67;10.87;;;16.00;99.90;;;;;;5073378;28;20900;-63
2022/11/01 03:53:37;;;;;;;24.97;10.33;;;16.00;99.90;;;;;;5072102;28;21100;-63
2022/11/01 03:56:04;;;;;;;31.43;11.53;;;16.10;99.90;;;;;;5074611;28;20485;-63
2022/11/01 03:58:42;;;;;;;31.13;11.27;;;;;;;;;;5075684;28;20498;-63
2022/11/01 04:01:10;;;;;;;29.93;10.70;;;;;;;;;;5068881;28;20560;-63
2022/11/01 04:03:37;;;;;;;31.83;8.87;;;16.10;99.90;;;;;;5084280;28;20979;-62
2022/11/01 04:06:06;;;;;;;40.63;11.20;;;16.10;99.90;;;;;;5071001;28;20486;-63
2022/11/01 04:08:33;;;;;;;31.00;8.30;;;16.10;99.90;;;;;;5076101;28;20477;-63
2022/11/01 04:11:01;;;;;;;36.43;10.00;;;16.20;99.90;;;;;;5076452;28;20475;-63
2022/11/01 04:13:27;;;;;;;44.63;12.57;;;16.20;99.90;;;;;;5068253;28;21009;-63
2022/11/01 04:21:26;;;;;;;35.27;11.17;;;16.20;99.90;;;;;;5056143;28;20527;-63
2022/11/01 04:23:53;;;;;;;25.80;9.47;;;16.20;99.90;;;;;;5064209;28;20463;-63
2022/11/01 04:26:21;;;;;;;31.10;11.70;;;;;;;;;;5073886;28;20558;-63
2022/11/01 04:28:55;;;;;;;37.07;9.77;;;16.20;99.90;;;;;;5066482;28;20479;-63
2022/11/01 04:31:22;;;;;;;30.97;11.57;;;16.20;99.90;;;;;;5061986;28;20469;-63
2022/11/01 04:33:50;;;;;;;20.73;7.67;;;;;;;;;;5073401;28;20471;-62
2022/11/01 04:36:16;;;;;;;26.83;7.97;;;16.20;99.90;;;;;;5069587;28;21348;-63
2022/11/01 04:38:45;;;;;;;17.43;6.33;;;16.30;99.90;;;;;;5070043;28;21068;-63
2022/11/01 04:41:11;;;;;;;29.97;9.00;;;16.40;99.90;;;;;;5072332;28;20846;-63
2022/11/01 04:43:38;;;;;;;31.80;9.10;;;16.40;99.90;;;;;;5070751;28;20603;-63
2022/11/01 04:46:05;;;;;;;23.00;9.33;;;16.30;99.90;;;;;;5075034;28;20838;-63
2022/11/01 04:48:32;;;;;;;35.17;10.43;;;;;;;;;;5076379;28;20473;-63
2022/11/01 04:51:01;;;;;;;39.03;9.40;;;16.30;99.90;;;;;;5079727;28;20561;-63
2022/11/01 04:53:28;;;;;;;27.13;9.80;;;16.30;99.90;;;;;;5077253;28;20974;-62
2022/11/01 04:55:56;;;;;;;24.20;9.73;;;;;;;;;;5074721;28;21158;-62
2022/11/01 04:58:24;;;;;;;30.60;10.43;;;16.20;99.90;;;;;;5075362;28;20481;-63
2022/11/01 05:00:50;;;;;;;21.97;8.40;;;16.30;99.90;;;;;;5078284;28;20486;-63
2022/11/01 05:03:17;;;;;;;28.57;11.47;;;16.20;99.90;;;;;;5073488;28;20975;-63
2022/11/01 05:05:44;;;;;;;32.57;11.10;;;16.20;99.90;;;;;;5076336;28;20494;-63
2022/11/01 05:08:11;;;;;;;43.30;10.93;;;;;;;;;;5072832;28;21047;-64
2022/11/01 05:10:40;;;;;;;20.43;9.23;;;16.40;99.90;;;;;;5077356;28;20494;-63
2022/11/01 05:13:09;;;;;;;35.37;8.70;;;16.30;99.90;;;;;;5075366;28;20489;-63
2022/11/01 05:15:36;;;;;;;42.60;10.40;;;16.40;99.90;;;;;;5075829;28;21038;-63
2022/11/01 05:18:03;;;;;;;35.77;10.83;;;;;;;;;;5074757;28;20482;-63
2022/11/01 05:20:31;;;;;;;49.40;11.53;;;16.50;99.90;;;;;;5069458;28;20537;-64
2022/11/01 05:22:59;;;;;;;28.70;10.57;;;16.40;99.90;;;;;;5072529;28;21056;-63
2022/11/01 05:25:26;;;;;;;36.93;7.97;;;16.30;99.90;;;;;;5073748;28;20888;-64
2022/11/01 05:27:58;;;;;;;38.73;9.57;;;;;;;;;;5072306;28;21076;-63
2022/11/01 05:30:27;;;;;;;38.43;11.80;;;;;;;;;;5077074;28;20485;-64
2022/11/01 05:32:58;;;;;;;28.07;7.20;;;;;;;;;;5072516;28;20585;-63
2022/11/01 05:35:25;;;;;;;43.87;12.63;;;16.40;99.90;;;;;;5074560;28;21400;-63
2022/11/01 05:37:52;;;;;;;35.23;11.27;;;16.30;99.90;;;;;;5063379;28;20518;-62
2022/11/01 05:40:19;;;;;;;27.23;7.60;;;16.40;99.90;;;;;;5081983;28;20486;-63
2022/11/01 05:42:46;;;;;;;32.40;8.20;;;;;;;;;;5070125;28;20478;-63
2022/11/01 05:45:13;;;;;;;32.57;10.83;;;16.40;99.90;;;;;;5071690;28;22018;-63
2022/11/01 05:47:41;;;;;;;44.10;9.40;;;16.40;99.90;;;;;;5074665;28;20965;-63
2022/11/01 05:50:09;;;;;;;24.13;7.43;;;16.40;99.90;;;;;;5072463;28;20478;-63
2022/11/01 05:52:36;;;;;;;30.53;8.63;;;;;;;;;;5082438;28;21255;-63
2022/11/01 05:55:03;;;;;;;39.03;10.60;;;16.40;99.90;;;;;;5077729;28;21043;-63
2022/11/01 05:57:30;;;;;;;33.23;9.07;;;16.40;99.90;;;;;;5069361;28;20491;-64
2022/11/01 05:59:57;;;;;;;43.63;9.60;;;;;;;;;;5074221;28;20485;-63
2022/11/01 06:02:24;;;;;;;38.60;10.13;;;16.40;99.90;;;;;;5073819;28;20474;-63
2022/11/01 06:04:52;;;;;;;35.57;9.50;;;16.40;99.90;;;;;;5071822;28;20485;-63
2022/11/01 06:07:18;;;;;;;34.87;9.90;;;16.30;99.90;;;;;;5073152;28;20474;-63
2022/11/01 06:09:45;;;;;;;23.83;8.57;;;16.30;99.90;;;;;;5078735;28;20555;-63
2022/11/01 06:12:12;;;;;;;21.80;7.87;;;16.30;99.90;;;;;;5072357;28;20609;-63
2022/11/01 06:14:39;;;;;;;35.43;8.53;;;;;;;;;;5070433;28;20527;-64
2022/11/01 06:17:07;;;;;;;38.00;9.50;;;16.30;99.90;;;;;;5077360;28;20481;-63
2022/11/01 06:19:33;;;;;;;36.67;9.00;;;16.20;99.90;;;;;;5074173;28;20482;-63
2022/11/01 06:22:02;;;;;;;32.50;8.67;;;;;;;;;;5072323;28;20903;-63
2022/11/01 06:24:30;;;;;;;26.53;9.40;;;16.10;99.90;;;;;;5073963;28;20559;-63
2022/11/01 06:26:57;;;;;;;25.40;8.50;;;16.20;99.90;;;;;;5072535;28;20483;-64
2022/11/01 06:29:24;;;;;;;32.97;10.50;;;16.10;99.90;;;;;;5068888;28;20463;-63
2022/11/01 06:31:51;;;;;;;25.80;7.77;;;16.10;99.90;;;;;;5067694;28;20478;-63
2022/11/01 06:34:17;;;;;;;32.67;12.07;;;16.10;99.90;;;;;;5079885;28;20583;-64
2022/11/01 06:36:44;;;;;;;34.30;10.00;;;16.20;99.90;;;;;;5024906;28;1123916;-63
2022/11/01 06:39:12;;;;;;;32.40;8.87;;;16.10;99.90;;;;;;5072180;28;20663;-63
2022/11/01 06:41:39;;;;;;;32.20;8.93;;;16.10;99.90;;;;;;5072161;28;20584;-63
2022/11/01 06:44:06;;;;;;;24.90;7.00;;;16.20;99.90;;;;;;5074903;28;20981;-63
2022/11/01 06:46:33;;;;;;;22.50;7.40;;;16.20;99.90;;;;;;5073828;28;20554;-64
2022/11/01 06:49:00;;;;;;;24.27;8.20;;;;;;;;;;5072325;28;20475;-63
2022/11/01 06:51:28;;;;;;;38.07;11.03;;;16.30;99.90;;;;;;5067144;28;20902;-63
2022/11/01 06:53:55;;;;;;;36.30;6.97;;;;;;;;;;5081935;28;21035;-63
2022/11/01 06:56:23;;;;;;;28.20;9.50;;;16.30;99.90;;;;;;5061373;28;20494;-63
2022/11/01 06:58:50;;;;;;;37.10;8.90;;;16.30;99.90;;;;;;5069774;28;20547;-63
2022/11/01 07:01:17;;;;;;;32.50;9.03;;;;;;;;;;5085102;28;20585;-64
2022/11/01 07:03:44;;;;;;;23.60;7.60;;;16.30;99.90;;;;;;5072332;28;21098;-63
2022/11/01 07:06:11;;;;;;;27.87;6.40;;;16.40;99.90;;;;;;5069083;28;20682;-63
2022/11/01 07:08:38;;;;;;;27.83;7.23;;;16.40;99.90;;;;;;5083024;28;20830;-63
2022/11/01 07:11:05;;;;;;;30.50;10.17;;;16.40;99.90;;;;;;5071276;28;20475;-63
2022/11/01 07:13:35;;;;;;;36.00;8.37;;;16.30;99.90;;;;;;5074469;28;20731;-63
2022/11/01 07:16:03;;;;;;;19.00;6.77;;;16.50;99.90;;;;;;5083403;28;20498;-63
2022/11/01 07:18:30;;;;;;;25.97;8.33;;;16.50;99.90;;;;;;5069658;28;20485;-64
2022/11/01 07:20:57;;;;;;;17.63;6.23;;;;;;;;;;5075587;28;20513;-63
2022/11/01 07:23:24;;;;;;;31.00;9.30;;;16.40;99.90;;;;;;5051226;28;20473;-63
2022/11/01 07:25:52;;;;;;;27.87;7.13;;;;;;;;;;5072098;28;20684;-64
2022/11/01 07:28:19;;;;;;;28.33;7.50;;;16.20;99.90;;;;;;5064264;28;20965;-63
2022/11/01 07:30:49;;;;;;;27.33;7.47;;;16.00;99.90;;;;;;5061852;28;20490;-63
2022/11/01 07:33:16;;;;;;;39.00;8.13;;;16.10;99.90;;;;;;5053917;28;20478;-63
2022/11/01 07:35:43;;;;;;;27.03;5.83;;;16.00;99.90;;;;;;5069346;28;20524;-63
2022/11/01 07:38:10;;;;;;;27.17;7.73;;;16.00;99.90;;;;;;5068626;28;20487;-63
2022/11/01 07:40:37;;;;;;;23.20;6.23;;;15.90;99.90;;;;;;5068380;28;20566;-63
2022/11/01 07:43:05;;;;;;;40.30;8.03;;;15.90;99.90;;;;;;5065380;28;20482;-63
2022/11/01 07:45:34;;;;;;;31.13;7.37;;;16.00;99.90;;;;;;5072943;28;20483;-63
2022/11/01 07:48:04;;;;;;;27.87;8.30;;;;;;;;;;5069342;28;20496;-63
2022/11/01 07:50:31;;;;;;;36.47;5.23;;;;;;;;;;5071011;28;20793;-63
2022/11/01 07:53:02;;;;;;;25.00;6.33;;;16.00;99.90;;;;;;5069835;28;20513;-63
2022/11/01 07:55:29;;;;;;;21.33;7.23;;;;;;;;;;5067889;28;20482;-63
2022/11/01 07:57:56;;;;;;;40.13;8.27;;;;;;;;;;5060405;28;20868;-63
2022/11/01 08:00:23;;;;;;;40.87;7.60;;;;;;;;;;5072290;28;20481;-63
2022/11/01 08:02:50;;;;;;;39.27;8.03;;;;;;;;;;5071791;28;20480;-62
2022/11/01 08:05:18;;;;;;;58.10;12.57;;;16.00;99.90;;;;;;5075086;28;20466;-63
2022/11/01 08:07:46;;;;;;;44.50;10.50;;;16.10;99.90;;;;;;5061511;28;20497;-63
2022/11/01 08:10:13;;;;;;;31.10;11.70;;;16.10;99.90;;;;;;5078104;28;22856;-62
2022/11/01 08:12:40;;;;;;;58.63;9.13;;;;;;;;;;5066932;28;20611;-63
2022/11/01 08:15:09;;;;;;;40.97;8.13;;;;;;;;;;5067829;28;20927;-63
2022/11/01 08:17:36;;;;;;;29.33;9.23;;;;;;;;;;5065567;28;21025;-63
2022/11/01 08:20:03;;;;;;;29.93;7.53;;;16.20;99.90;;;;;;5079496;28;20849;-63
2022/11/01 08:22:31;;;;;;;12.67;7.00;;;16.10;99.90;;;;;;5069590;28;20490;-63
2022/11/01 08:24:58;;;;;;;20.63;6.77;;;16.10;99.90;;;;;;5072227;28;20540;-63
2022/11/01 08:27:25;;;;;;;27.73;8.17;;;16.10;99.90;;;;;;5066827;28;21009;-63
2022/11/01 08:29:52;;;;;;;18.63;5.23;;;16.10;99.90;;;;;;5072958;28;20857;-64
2022/11/01 08:32:22;;;;;;;24.23;6.70;;;16.10;99.90;;;;;;5076794;28;20510;-63
2022/11/01 08:34:49;;;;;;;25.93;6.27;;;16.10;99.90;;;;;;5070536;28;20474;-63
2022/11/01 08:37:17;;;;;;;17.93;6.43;;;16.10;99.90;;;;;;5065257;28;20916;-63
2022/11/01 08:39:45;;;;;;;39.23;6.10;;;16.10;99.90;;;;;;5071047;28;20829;-63
2022/11/01 08:42:12;;;;;;;32.80;8.10;;;19.00;99.90;;;;;;5062883;28;20487;-63
2022/11/01 08:44:38;;;;;;;32.63;5.60;;;16.20;99.90;;;;;;5068693;28;20853;-63
2022/11/01 08:47:05;;;;;;;46.70;6.90;;;18.80;99.90;;;;;;5062868;28;20483;-63
2022/11/01 08:49:32;;;;;;;32.93;7.10;;;16.10;99.90;;;;;;5070288;28;20474;-64
2022/11/01 08:51:59;;;;;;;43.87;7.43;;;;;;;;;;5067247;28;20479;-63
2022/11/01 08:54:26;;;;;;;55.37;9.50;;;16.20;99.90;;;;;;5068330;28;20487;-63
2022/11/01 08:56:54;;;;;;;44.40;10.80;;;16.30;99.90;;;;;;5071526;28;20868;-63
2022/11/01 08:59:21;;;;;;;50.73;11.20;;;;;;;;;;5068555;28;20479;-63
2022/11/01 09:01:49;;;;;;;49.10;6.10;;;15.30;99.90;;;;;;5073446;28;20493;-63
2022/11/01 09:04:16;;;;;;;47.63;8.10;;;16.40;99.90;;;;;;5073117;28;20514;-63
2022/11/01 09:06:43;;;;;;;30.83;8.43;;;16.30;99.90;;;;;;5068406;28;20482;-64
2022/11/01 09:09:10;;;;;;;38.97;5.80;;;;;;;;;;5072209;28;20478;-63
2022/11/01 09:11:38;;;;;;;28.60;6.10;;;;;;;;;;5065324;28;20580;-64
2022/11/01 09:14:06;;;;;;;26.10;5.53;;;16.00;99.90;;;;;;5080526;28;20474;-63
2022/11/01 09:16:33;;;;;;;35.70;5.97;;;15.90;99.90;;;;;;5063546;28;21218;-64
2022/11/01 09:19:01;;;;;;;49.03;7.30;;;16.00;99.90;;;;;;5074786;28;20482;-63
2022/11/01 09:21:28;;;;;;;20.23;3.20;;;;;;;;;;5064695;28;20529;-63
2022/11/01 09:23:57;;;;;;;21.37;4.93;;;;;;;;;;5070124;28;20579;-63
2022/11/01 09:26:26;;;;;;;46.37;8.33;;;;;;;;;;5061162;28;20472;-63
2022/11/01 09:28:54;;;;;;;37.70;5.67;;;15.90;99.90;;;;;;5061893;28;20525;-62
2022/11/01 09:31:22;;;;;;;37.80;8.17;;;;;;;;;;5084830;28;20478;-64
2022/11/01 09:33:49;;;;;;;44.53;7.67;;;18.80;99.90;;;;;;5071165;28;21012;-63
2022/11/01 09:36:16;;;;;;;30.53;6.10;;;15.90;98.60;;;;;;5080212;28;20470;-63
2022/11/01 09:38:43;;;;;;;12.73;3.43;;;16.10;99.00;;;;;;5076489;28;20881;-63
2022/11/01 09:41:22;;;;;;;26.30;4.83;;;16.40;99.50;;;;;;5069829;28;20505;-63
2022/11/01 09:43:49;;;;;;;32.13;5.23;;;;;;;;;;5063941;28;20504;-63
2022/11/01 09:46:21;;;;;;;35.23;8.13;;;16.80;97.70;;;;;;5087669;28;20482;-64
2022/11/01 09:48:50;;;;;;;28.33;5.40;;;16.80;96.90;;;;;;5075778;28;20486;-63
2022/11/01 09:51:20;;;;;;;35.73;6.60;;;16.60;96.20;;;;;;5074113;28;20482;-63
2022/11/01 09:53:48;;;;;;;29.57;5.97;;;16.70;96.80;;;;;;5072166;28;20680;-63
2022/11/01 09:56:24;;;;;;;42.70;6.00;;;16.60;96.10;;;;;;5072425;28;20581;-63
2022/11/01 09:58:57;;;;;;;26.00;8.07;;;;;;;;;;5072400;28;20486;-63
2022/11/01 10:01:40;;;;;;;35.53;10.47;;;16.70;96.60;;;;;;5067729;28;20481;-63
2022/11/01 10:04:26;;;;;;;25.90;6.90;;;16.90;96.80;;;;;;5074623;28;20559;-63
2022/11/01 10:06:59;;;;;;;25.13;6.70;;;17.10;96.30;;;;;;5067338;28;20489;-63
2022/11/01 10:09:31;;;;;;;29.27;7.37;;;;;;;;;;5078766;27;20972;-63
2022/11/01 10:12:07;;;;;;;30.00;6.70;;;17.40;95.90;;;;;;5077569;28;20485;-63
2022/11/01 10:14:53;;;;;;;19.63;4.60;;;16.10;94.50;;;;;;5079127;28;20478;-63
2022/11/01 10:17:23;;;;;;;46.87;7.63;;;;;;;;;;5067341;28;20482;-63
2022/11/01 10:19:51;;;;;;;21.40;5.17;;;17.50;95.70;;;;;;5075012;28;20493;-64
2022/11/01 10:22:26;;;;;;;43.33;9.80;;;17.40;94.70;;;;;;5072157;28;20485;-64
2022/11/01 10:24:58;;;;;;;33.63;5.10;;;;;;;;;;5052564;28;20478;-62
2022/11/01 10:27:28;;;;;;;41.63;7.47;;;;;;;;;;5074791;28;20479;-63
2022/11/01 10:30:01;;;;;;;30.60;6.47;;;17.60;94.90;;;;;;5075270;28;21252;-63
2022/11/01 10:32:33;;;;;;;37.63;7.03;;;17.70;95.00;;;;;;5064305;28;20496;-64
2022/11/01 10:35:05;;;;;;;39.30;7.73;;;;;;;;;;5076044;28;20479;-63
2022/11/01 10:37:37;;;;;;;31.47;6.30;;;17.80;95.90;;;;;;5070702;28;20594;-64
2022/11/01 10:40:11;;;;;;;19.33;6.60;;;17.90;94.90;;;;;;5070715;28;20482;-63
2022/11/01 10:42:38;;;;;;;21.93;3.90;;;17.90;95.50;;;;;;5073054;28;20482;-63
2022/11/01 10:45:08;;;;;;;31.47;5.73;;;17.90;94.70;;;;;;5076365;28;20475;-63
2022/11/01 10:47:35;;;;;;;23.63;5.43;;;;;;;;;;5066701;28;20511;-64
2022/11/01 10:50:06;;;;;;;29.20;5.90;;;;;;;;;;5061627;28;20478;-63
2022/11/01 10:52:34;;;;;;;25.43;6.10;;;;;;;;;;5080816;28;20826;-64
2022/11/01 10:55:03;;;;;;;22.53;6.40;;;;;;;;;;5063363;28;20846;-64
2022/11/01 10:57:33;;;;;;;36.80;8.80;;;;;;;;;;5067874;28;20807;-64
2022/11/01 11:00:04;;;;;;;29.50;7.37;;;17.50;93.50;;;;;;5067741;28;20490;-63
2022/11/01 11:02:35;;;;;;;17.20;5.00;;;17.70;94.00;;;;;;5068696;28;20491;-64
2022/11/01 11:05:04;;;;;;;37.90;6.37;;;;;;;;;;5071434;28;21041;-64
2022/11/01 11:07:32;;;;;;;21.37;4.80;;;17.50;92.90;;;;;;5072877;28;20536;-64
2022/11/01 11:09:59;;;;;;;22.93;4.67;;;17.50;92.60;;;;;;5074317;28;20482;-64
2022/11/01 11:12:28;;;;;;;36.93;8.93;;;17.30;93.30;;;;;;5073563;28;20834;-64
2022/11/01 11:15:00;;;;;;;28.67;5.17;;;17.50;93.20;;;;;;5066701;28;20475;-63
2022/11/01 11:17:32;;;;;;;28.13;4.20;;;17.60;93.60;;;;;;5078000;28;20475;-63
2022/11/01 11:20:03;;;;;;;37.40;7.07;;;;;;;;;;5056040;28;20482;-64
2022/11/01 11:22:38;;;;;;;12.43;4.30;;;17.40;92.40;;;;;;5068733;28;20477;-63
2022/11/01 11:25:13;;;;;;;19.93;5.07;;;17.70;92.60;;;;;;5065770;28;20481;-62
2022/11/01 11:27:46;;;;;;;16.83;3.73;;;17.70;93.10;;;;;;5067908;28;21069;-63
2022/11/01 11:30:25;;;;;;;13.07;4.97;;;17.90;93.10;;;;;;5070063;28;20476;-63
2022/11/01 11:32:52;;;;;;;14.80;4.70;;;17.60;92.20;;;;;;5065713;28;20580;-65
2022/11/01 11:35:21;;;;;;;22.30;4.97;;;;;;;;;;5081853;28;20633;-64
2022/11/01 11:37:54;;;;;;;17.67;5.60;;;17.60;91.80;;;;;;5061305;28;20489;-63
2022/11/01 11:40:23;;;;;;;16.00;4.40;;;17.50;93.00;;;;;;5074889;28;20585;-63
2022/11/01 11:42:51;;;;;;;22.70;4.60;;;17.60;93.40;;;;;;5075851;28;20498;-64
2022/11/01 11:45:27;;;;;;;19.43;3.17;;;17.80;93.40;;;;;;5048479;28;20989;-64
2022/11/01 11:47:55;;;;;;;40.40;7.00;;;17.80;91.70;;;;;;5066162;28;20977;-63
2022/11/01 11:50:33;;;;;;;26.53;6.73;;;;;;;;;;5081157;28;20653;-64
2022/11/01 11:53:07;;;;;;;38.10;6.10;;;17.80;92.50;;;;;;5074477;28;20486;-63
2022/11/01 11:55:39;;;;;;;90.93;7.70;;;17.80;91.90;;;;;;5070358;28;20470;-63
2022/11/01 11:58:17;;;;;;;63.97;9.93;;;17.90;92.50;;;;;;5075554;28;20509;-63
2022/11/01 12:00:47;;;;;;;30.57;6.47;;;;;;;;;;5072843;28;20483;-64
2022/11/01 12:03:16;;;;;;;33.10;8.43;;;17.90;92.20;;;;;;5070206;28;20486;-64
2022/11/01 12:05:52;;;;;;;20.93;4.07;;;18.00;92.60;;;;;;5068631;28;20560;-64
2022/11/01 12:08:30;;;;;;;15.47;4.90;;;17.80;92.20;;;;;;5064205;28;20535;-63
2022/11/01 12:10:58;;;;;;;28.10;4.83;;;;;;;;;;5081678;28;20492;-63
2022/11/01 12:13:31;;;;;;;9.73;3.10;;;17.60;91.90;;;;;;5073073;28;20482;-63
2022/11/01 12:16:09;;;;;;;13.40;3.03;;;;;;;;;;5074067;28;20477;-63
2022/11/01 12:18:45;;;;;;;11.87;3.60;;;;;;;;;;5061766;28;20478;-64
2022/11/01 12:21:18;;;;;;;16.70;3.60;;;17.60;92.80;;;;;;5070680;28;20694;-63
2022/11/01 12:23:46;;;;;;;22.53;3.63;;;;;;;;;;5073543;28;20482;-64
2022/11/01 12:26:17;;;;;;;13.83;3.23;;;17.60;92.30;;;;;;5062569;28;20478;-64
2022/11/01 12:28:45;;;;;;;16.40;2.33;;;;;;;;;;5084604;28;20481;-63
2022/11/01 12:31:17;;;;;;;10.60;3.50;;;17.50;92.60;;;;;;5075138;28;20492;-64
2022/11/01 12:33:50;;;;;;;19.03;3.20;;;17.40;92.80;;;;;;5072818;28;20497;-64
2022/11/01 12:36:19;;;;;;;19.30;2.63;;;;;;;;;;5066897;28;20485;-64
2022/11/01 12:38:51;;;;;;;18.27;3.47;;;17.70;92.60;;;;;;5074086;28;20487;-63
2022/11/01 12:41:27;;;;;;;17.53;2.00;;;18.00;92.70;;;;;;5068884;28;20494;-63
2022/11/01 12:44:02;;;;;;;13.33;3.07;;;;;;;;;;5073383;28;20478;-63
2022/11/01 12:46:35;;;;;;;25.17;3.87;;;18.30;92.90;;;;;;5069877;28;21077;-64
2022/11/01 12:49:05;;;;;;;17.53;2.57;;;;;;;;;;5073040;28;20483;-64
2022/11/01 12:51:35;;;;;;;11.67;2.87;;;;;;;;;;5068150;28;20466;-64
2022/11/01 12:54:12;;;;;;;15.93;2.83;;;18.00;91.10;;;;;;5074490;28;20474;-64
2022/11/01 12:56:39;;;;;;;11.87;2.93;;;17.90;92.60;;;;;;5061874;28;20478;-64
2022/11/01 12:59:06;;;;;;;30.40;3.30;;;17.80;92.10;;;;;;5074631;28;20502;-64
2022/11/01 13:01:36;;;;;;;12.97;3.73;;;;;;;;;;5073489;28;21276;-64
2022/11/01 13:04:10;;;;;;;17.70;2.77;;;;;;;;;;5070170;28;20481;-64
2022/11/01 13:06:49;;;;;;;8.50;2.00;;;17.60;92.60;;;;;;5073516;28;20647;-64
2022/11/01 13:09:25;;;;;;;12.87;2.03;;;17.70;92.70;;;;;;5076009;28;20457;-63
2022/11/01 13:11:59;;;;;;;30.83;3.57;;;17.50;92.20;;;;;;5075415;28;20973;-64
2022/11/01 13:14:35;;;;;;;15.07;2.57;;;17.80;92.60;;;;;;5068051;28;20483;-63
2022/11/01 13:17:05;;;;;;;20.20;2.43;;;;;;;;;;5076100;28;20596;-63
2022/11/01 13:19:37;;;;;;;14.13;3.33;;;18.20;92.10;;;;;;5077254;28;20548;-63
2022/11/01 13:22:07;;;;;;;15.17;2.37;;;18.40;92.60;;;;;;5074400;28;20482;-63
2022/11/01 13:24:44;;;;;;;18.13;2.40;;;18.40;92.00;;;;;;5073892;28;21010;-62